sensor_id;sensor_type;location;lat;lon;timestamp;pressure;altitude;pressure_sealevel;temperature;humidity
49367;BME280;35245;52.026;8.540;2023-01-30T00:01:30;45442.66;;;-145.42;100.00
49367;BME280;35245;52.026;8.540;2023-01-30T00:03:59;45494.13;;;-145.42;100.00
49367;BME280;35245;52.026;8.540;2023-01-30T00:06:27;45337.75;;;-145.42;100.00
49367;BME280;35245;52.026;8.540;2023-01-30T00:08:54;44987.44;;;-145.42;100.00
49367;BME280;35245;52.026;8.540;2023-01-30T00:11:22;45070.56;;;-145.42;100.00
49367;BME280;35245;52.026;8.540;2023-01-30T00:13:50;45713.84;;;-145.42;100.00
49367;BME280;35245;52.026;8.540;2023-01-30T00:16:17;44645.03;;;-145.42;100.00
49367;BME280;35245;52.026;8.540;2023-01-30T00:18:45;43091.81;;;-145.42;100.00
49367;BME280;35245;52.026;8.540;2023-01-30T00:21:14;41147.72;;;-145.42;100.00
49367;BME280;35245;52.026;8.540;2023-01-30T00:23:42;38870.56;;;-145.42;100.00
49367;BME280;35245;52.026;8.540;2023-01-30T00:26:10;37446.06;;;-145.42;100.00
49367;BME280;35245;52.026;8.540;2023-01-30T00:28:37;38495.13;;;-145.42;100.00
49367;BME280;35245;52.026;8.540;2023-01-30T00:31:05;38044.66;;;-145.42;100.00
49367;BME280;35245;52.026;8.540;2023-01-30T00:33:33;34612.41;;;-145.42;100.00
49367;BME280;35245;52.026;8.540;2023-01-30T00:36:01;31329.09;;;-145.42;100.00
49367;BME280;35245;52.026;8.540;2023-01-30T00:38:30;31076.66;;;-145.42;100.00
49367;BME280;35245;52.026;8.540;2023-01-30T00:40:57;32844.13;;;-145.42;100.00
49367;BME280;35245;52.026;8.540;2023-01-30T00:43:24;32339.06;;;-145.42;100.00
49367;BME280;35245;52.026;8.540;2023-01-30T00:46:21;33601.84;;;-145.42;100.00
49367;BME280;35245;52.026;8.540;2023-01-30T00:49:10;32844.13;;;-145.42;100.00
49367;BME280;35245;52.026;8.540;2023-01-30T00:51:38;33601.84;;;-145.42;100.00
49367;BME280;35245;52.026;8.540;2023-01-30T00:54:07;32844.13;;;-145.42;100.00
49367;BME280;35245;52.026;8.540;2023-01-30T00:56:34;34107.09;;;-145.42;100.00
49367;BME280;35245;52.026;8.540;2023-01-30T00:59:01;32591.56;;;-145.42;100.00
49367;BME280;35245;52.026;8.540;2023-01-30T01:01:29;33096.69;;;-145.42;100.00
49367;BME280;35245;52.026;8.540;2023-01-30T01:03:56;31581.56;;;-145.42;100.00
49367;BME280;35245;52.026;8.540;2023-01-30T01:06:23;30067.03;;;-145.42;100.00
49367;BME280;35245;52.026;8.540;2023-01-30T01:08:50;29057.66;;;-145.42;100.00
49367;BME280;35245;52.026;8.540;2023-01-30T01:11:19;22251.22;;;-145.42;100.00
49367;BME280;35245;52.026;8.540;2023-01-30T01:13:52;15708.09;;;-145.42;100.00
49367;BME280;35245;52.026;8.540;2023-01-30T01:16:20;11687.03;;;-145.42;100.00
49367;BME280;35245;52.026;8.540;2023-01-30T01:18:48;10180.22;;;-145.42;100.00
49367;BME280;35245;52.026;8.540;2023-01-30T01:21:15;8423.00;;;-145.42;100.00
49367;BME280;35245;52.026;8.540;2023-01-30T01:23:43;7670.13;;;-145.42;100.00
49367;BME280;35245;52.026;8.540;2023-01-30T01:26:14;6666.56;;;-145.42;100.00
49367;BME280;35245;52.026;8.540;2023-01-30T01:28:43;7670.13;;;-145.42;100.00
49367;BME280;35245;52.026;8.540;2023-01-30T01:31:12;7419.22;;;-145.42;100.00
49367;BME280;35245;52.026;8.540;2023-01-30T01:33:40;6164.88;;;-145.42;100.00
49367;BME280;35245;52.026;8.540;2023-01-30T01:36:08;4158.78;;;-145.42;100.00
49367;BME280;35245;52.026;8.540;2023-01-30T01:38:35;4409.47;;;-145.42;100.00
49367;BME280;35245;52.026;8.540;2023-01-30T01:41:04;3657.41;;;-145.42;100.00
49367;BME280;35245;52.026;8.540;2023-01-30T01:43:34;3156.09;;;-145.42;100.00
49367;BME280;35245;52.026;8.540;2023-01-30T01:46:09;1402.06;;;-145.42;100.00
49367;BME280;35245;52.026;8.540;2023-01-30T01:48:43;1402.06;;;-145.42;100.00
49367;BME280;35245;52.026;8.540;2023-01-30T01:51:16;650.59;;;-145.42;100.00
49367;BME280;35245;52.026;8.540;2023-01-30T01:53:53;650.59;;;-145.42;100.00
49367;BME280;35245;52.026;8.540;2023-01-30T01:56:22;-100.75;;;-145.42;100.00
49367;BME280;35245;52.026;8.540;2023-01-30T01:58:53;901.06;;;-145.42;100.00
49367;BME280;35245;52.026;8.540;2023-01-30T02:01:23;-100.75;;;-145.42;100.00
49367;BME280;35245;52.026;8.540;2023-01-30T02:03:55;-601.56;;;-145.42;100.00
49367;BME280;35245;52.026;8.540;2023-01-30T02:06:24;-1853.28;;;-145.42;100.00
49367;BME280;35245;52.026;8.540;2023-01-30T02:08:54;-3354.84;;;-145.42;100.00
49367;BME280;35245;52.026;8.540;2023-01-30T02:11:31;-4605.69;;;-145.42;100.00
49367;BME280;35245;52.026;8.540;2023-01-30T02:13:59;-4355.56;;;-145.42;100.00
49367;BME280;35245;52.026;8.540;2023-01-30T02:16:29;-3354.84;;;-145.42;100.00
49367;BME280;35245;52.026;8.540;2023-01-30T02:18:56;-3855.25;;;-145.42;100.00
49367;BME280;35245;52.026;8.540;2023-01-30T02:22:08;-3605.06;;;-145.42;100.00
49367;BME280;35245;52.026;8.540;2023-01-30T02:25:08;-3605.06;;;-145.42;100.00
49367;BME280;35245;52.026;8.540;2023-01-30T02:28:01;-1602.97;;;-145.42;100.00
49367;BME280;35245;52.026;8.540;2023-01-30T02:30:59;-2103.59;;;-145.42;100.00
49367;BME280;35245;52.026;8.540;2023-01-30T02:33:37;-3104.63;;;-145.42;100.00
49367;BME280;35245;52.026;8.540;2023-01-30T02:36:15;-4855.81;;;-145.42;100.00
49367;BME280;35245;52.026;8.540;2023-01-30T02:38:52;-4355.56;;;-145.42;100.00
49367;BME280;35245;52.026;8.540;2023-01-30T02:41:31;-4105.41;;;-145.42;100.00
49367;BME280;35245;52.026;8.540;2023-01-30T02:44:04;-5356.00;;;-145.42;100.00
49367;BME280;35245;52.026;8.540;2023-01-30T02:46:42;-6106.19;;;-145.42;100.00
49367;BME280;35245;52.026;8.540;2023-01-30T02:49:15;-5606.09;;;-145.42;100.00
49367;BME280;35245;52.026;8.540;2023-01-30T02:51:47;-6356.19;;;-145.42;100.00
49367;BME280;35245;52.026;8.540;2023-01-30T02:54:16;-6356.19;;;-145.42;100.00
49367;BME280;35245;52.026;8.540;2023-01-30T02:56:46;-6606.19;;;-145.42;100.00
49367;BME280;35245;52.026;8.540;2023-01-30T02:59:17;-5856.13;;;-145.42;100.00
49367;BME280;35245;52.026;8.540;2023-01-30T03:02:19;-5856.13;;;-145.42;100.00
49367;BME280;35245;52.026;8.540;2023-01-30T03:05:20;-6856.19;;;-145.42;100.00
49367;BME280;35245;52.026;8.540;2023-01-30T03:08:00;-7356.13;;;-145.42;100.00
49367;BME280;35245;52.026;8.540;2023-01-30T03:10:35;-7606.06;;;-145.42;100.00
49367;BME280;35245;52.026;8.540;2023-01-30T03:13:10;-8105.91;;;-145.42;100.00
49367;BME280;35245;52.026;8.540;2023-01-30T03:15:44;-8605.66;;;-145.42;100.00
49367;BME280;35245;52.026;8.540;2023-01-30T03:18:16;-8605.66;;;-145.42;100.00
49367;BME280;35245;52.026;8.540;2023-01-30T03:20:43;-8605.66;;;-145.42;100.00
49367;BME280;35245;52.026;8.540;2023-01-30T03:23:10;-8355.78;;;-145.42;100.00
49367;BME280;35245;52.026;8.540;2023-01-30T03:25:40;-8355.78;;;-145.42;100.00
49367;BME280;35245;52.026;8.540;2023-01-30T03:28:09;-8355.78;;;-145.42;100.00
49367;BME280;35245;52.026;8.540;2023-01-30T03:30:37;-8855.53;;;-145.42;100.00
49367;BME280;35245;52.026;8.540;2023-01-30T03:33:04;-8105.91;;;-145.42;100.00
49367;BME280;35245;52.026;8.540;2023-01-30T03:35:32;-8605.66;;;-145.42;100.00
49367;BME280;35245;52.026;8.540;2023-01-30T03:38:00;-9355.19;;;-145.42;100.00
49367;BME280;35245;52.026;8.540;2023-01-30T03:40:28;-9854.81;;;-145.42;100.00
49367;BME280;35245;52.026;8.540;2023-01-30T03:42:55;-9105.38;;;-145.42;100.00
49367;BME280;35245;52.026;8.540;2023-01-30T03:45:22;-8855.53;;;-145.42;100.00
49367;BME280;35245;52.026;8.540;2023-01-30T03:47:49;-10604.09;;;-145.42;100.00
49367;BME280;35245;52.026;8.540;2023-01-30T03:50:17;-11103.53;;;-145.42;100.00
49367;BME280;35245;52.026;8.540;2023-01-30T03:52:45;-11103.53;;;-145.42;100.00
49367;BME280;35245;52.026;8.540;2023-01-30T03:55:12;-10604.09;;;-145.42;100.00
49367;BME280;35245;52.026;8.540;2023-01-30T03:57:40;-10354.34;;;-145.42;100.00
49367;BME280;35245;52.026;8.540;2023-01-30T04:00:09;-12351.84;;;-145.42;100.00
49367;BME280;35245;52.026;8.540;2023-01-30T04:02:36;-11103.53;;;-145.42;100.00
49367;BME280;35245;52.026;8.540;2023-01-30T04:05:05;-10853.81;;;-145.42;100.00
49367;BME280;35245;52.026;8.540;2023-01-30T04:07:32;-11103.53;;;-145.42;100.00
49367;BME280;35245;52.026;8.540;2023-01-30T04:10:01;-10604.09;;;-145.42;100.00
49367;BME280;35245;52.026;8.540;2023-01-30T04:12:28;-9854.81;;;-145.42;100.00
49367;BME280;35245;52.026;8.540;2023-01-30T04:14:55;-9355.19;;;-145.42;100.00
49367;BME280;35245;52.026;8.540;2023-01-30T04:17:22;-9105.38;;;-145.42;100.00
49367;BME280;35245;52.026;8.540;2023-01-30T04:19:49;-9605.00;;;-145.42;100.00
49367;BME280;35245;52.026;8.540;2023-01-30T04:22:16;-9355.19;;;-145.42;100.00
49367;BME280;35245;52.026;8.540;2023-01-30T04:24:44;-9854.81;;;-145.42;100.00
49367;BME280;35245;52.026;8.540;2023-01-30T04:27:12;-9605.00;;;-145.42;100.00
49367;BME280;35245;52.026;8.540;2023-01-30T04:29:39;-9605.00;;;-145.42;100.00
49367;BME280;35245;52.026;8.540;2023-01-30T04:32:07;-9105.38;;;-145.42;100.00
49367;BME280;35245;52.026;8.540;2023-01-30T04:34:34;-8855.53;;;-145.42;100.00
49367;BME280;35245;52.026;8.540;2023-01-30T04:37:01;-9605.00;;;-145.42;100.00
49367;BME280;35245;52.026;8.540;2023-01-30T04:39:28;-8855.53;;;-145.42;100.00
49367;BME280;35245;52.026;8.540;2023-01-30T04:41:56;-9355.19;;;-145.42;100.00
49367;BME280;35245;52.026;8.540;2023-01-30T04:44:24;-10104.59;;;-145.42;100.00
49367;BME280;35245;52.026;8.540;2023-01-30T04:46:52;-8355.78;;;-145.42;100.00
49367;BME280;35245;52.026;8.540;2023-01-30T04:49:19;-7856.00;;;-145.42;100.00
49367;BME280;35245;52.026;8.540;2023-01-30T04:51:46;-8855.53;;;-145.42;100.00
49367;BME280;35245;52.026;8.540;2023-01-30T04:54:14;-9105.38;;;-145.42;100.00
49367;BME280;35245;52.026;8.540;2023-01-30T04:56:41;-12102.22;;;-145.42;100.00
49367;BME280;35245;52.026;8.540;2023-01-30T04:59:08;-10604.09;;;-145.42;100.00
49367;BME280;35245;52.026;8.540;2023-01-30T05:01:38;-9355.19;;;-145.42;100.00
49367;BME280;35245;52.026;8.540;2023-01-30T05:04:06;-8855.53;;;-145.42;100.00
49367;BME280;35245;52.026;8.540;2023-01-30T05:06:35;-9605.00;;;-145.42;100.00
49367;BME280;35245;52.026;8.540;2023-01-30T05:09:03;-9605.00;;;-145.42;100.00
49367;BME280;35245;52.026;8.540;2023-01-30T05:11:31;-9854.81;;;-145.42;100.00
49367;BME280;35245;52.026;8.540;2023-01-30T05:13:59;-10853.81;;;-145.42;100.00
49367;BME280;35245;52.026;8.540;2023-01-30T05:16:27;-10104.59;;;-145.42;100.00
49367;BME280;35245;52.026;8.540;2023-01-30T05:18:55;-10104.59;;;-145.42;100.00
49367;BME280;35245;52.026;8.540;2023-01-30T05:21:25;-10604.09;;;-145.42;100.00
49367;BME280;35245;52.026;8.540;2023-01-30T05:23:54;-10354.34;;;-145.42;100.00
49367;BME280;35245;52.026;8.540;2023-01-30T05:26:22;-11852.56;;;-145.42;100.00
49367;BME280;35245;52.026;8.540;2023-01-30T05:28:53;22701.88;;;-145.42;100.00
49367;BME280;35245;52.026;8.540;2023-01-30T05:31:21;32287.75;;;-145.42;100.00
49367;BME280;35245;52.026;8.540;2023-01-30T05:33:49;32153.59;;;-145.42;100.00
49367;BME280;35245;52.026;8.540;2023-01-30T05:36:20;26139.44;;;-145.42;100.00
49367;BME280;35245;52.026;8.540;2023-01-30T05:38:48;23217.50;;;-145.42;100.00
49367;BME280;35245;52.026;8.540;2023-01-30T05:41:16;19707.78;;;-145.42;100.00
49367;BME280;35245;52.026;8.540;2023-01-30T05:43:43;23739.13;;;-145.42;100.00
49367;BME280;35245;52.026;8.540;2023-01-30T05:46:14;22552.31;;;-145.42;100.00
49367;BME280;35245;52.026;8.540;2023-01-30T05:48:41;41232.72;;;-145.42;100.00
49367;BME280;35245;52.026;8.540;2023-01-30T05:51:18;17281.94;;;-145.42;100.00
49367;BME280;35245;52.026;8.540;2023-01-30T05:53:45;14610.16;;;-145.42;100.00
49367;BME280;35245;52.026;8.540;2023-01-30T05:56:13;8393.59;;;-145.42;100.00
49367;BME280;35245;52.026;8.540;2023-01-30T05:58:41;9899.72;;;-145.42;100.00
49367;BME280;35245;52.026;8.540;2023-01-30T06:01:11;10190.03;;;-145.42;100.00
49367;BME280;35245;52.026;8.540;2023-01-30T06:03:39;15303.47;;;-145.42;100.00
49367;BME280;35245;52.026;8.540;2023-01-30T06:06:06;9125.00;;;-145.42;100.00
49367;BME280;35245;52.026;8.540;2023-01-30T06:08:35;-771.75;;;-145.42;100.00
49367;BME280;35245;52.026;8.540;2023-01-30T06:11:05;-14100.28;;;-145.42;100.00
49367;BME280;35245;52.026;8.540;2023-01-30T06:13:33;-14100.28;;;-145.42;100.00
49367;BME280;35245;52.026;8.540;2023-01-30T06:16:00;-12851.06;;;-145.42;100.00
49367;BME280;35245;52.026;8.540;2023-01-30T06:18:28;-12351.84;;;-145.42;100.00
49367;BME280;35245;52.026;8.540;2023-01-30T06:20:55;-11103.53;;;-145.42;100.00
49367;BME280;35245;52.026;8.540;2023-01-30T06:23:22;-9355.19;;;-145.42;100.00
49367;BME280;35245;52.026;8.540;2023-01-30T06:25:51;-9105.38;;;-145.42;100.00
49367;BME280;35245;52.026;8.540;2023-01-30T06:28:20;-9605.00;;;-145.42;100.00
49367;BME280;35245;52.026;8.540;2023-01-30T06:30:47;-10354.34;;;-145.42;100.00
49367;BME280;35245;52.026;8.540;2023-01-30T06:33:15;-10604.09;;;-145.42;100.00
49367;BME280;35245;52.026;8.540;2023-01-30T06:35:43;-12351.84;;;-145.42;100.00
49367;BME280;35245;52.026;8.540;2023-01-30T06:38:10;-11103.53;;;-145.42;100.00
49367;BME280;35245;52.026;8.540;2023-01-30T06:40:40;-10354.34;;;-145.42;100.00
49367;BME280;35245;52.026;8.540;2023-01-30T06:43:08;-10104.59;;;-145.42;100.00
49367;BME280;35245;52.026;8.540;2023-01-30T06:45:36;-10604.09;;;-145.42;100.00
49367;BME280;35245;52.026;8.540;2023-01-30T06:48:04;-9105.38;;;-145.42;100.00
49367;BME280;35245;52.026;8.540;2023-01-30T06:50:31;-9605.00;;;-145.42;100.00
49367;BME280;35245;52.026;8.540;2023-01-30T06:53:02;-9605.00;;;-145.42;100.00
49367;BME280;35245;52.026;8.540;2023-01-30T06:55:29;-10104.59;;;-145.42;100.00
49367;BME280;35245;52.026;8.540;2023-01-30T06:58:04;-9854.81;;;-145.42;100.00
49367;BME280;35245;52.026;8.540;2023-01-30T07:00:33;-10354.34;;;-145.42;100.00
49367;BME280;35245;52.026;8.540;2023-01-30T07:03:01;-9854.81;;;-145.42;100.00
49367;BME280;35245;52.026;8.540;2023-01-30T07:05:28;-12351.84;;;-145.42;100.00
49367;BME280;35245;52.026;8.540;2023-01-30T07:07:55;-12601.47;;;-145.42;100.00
49367;BME280;35245;52.026;8.540;2023-01-30T07:10:23;-11353.22;;;-145.42;100.00
49367;BME280;35245;52.026;8.540;2023-01-30T07:12:51;-10604.09;;;-145.42;100.00
49367;BME280;35245;52.026;8.540;2023-01-30T07:15:19;-10853.81;;;-145.42;100.00
49367;BME280;35245;52.026;8.540;2023-01-30T07:17:47;-10354.34;;;-145.42;100.00
49367;BME280;35245;52.026;8.540;2023-01-30T07:20:15;-7356.13;;;-145.42;100.00
49367;BME280;35245;52.026;8.540;2023-01-30T07:22:45;-7606.06;;;-145.42;100.00
49367;BME280;35245;52.026;8.540;2023-01-30T07:25:14;-7606.06;;;-145.42;100.00
49367;BME280;35245;52.026;8.540;2023-01-30T07:27:42;-6856.19;;;-145.42;100.00
49367;BME280;35245;52.026;8.540;2023-01-30T07:30:11;-6606.19;;;-145.42;100.00
49367;BME280;35245;52.026;8.540;2023-01-30T07:32:38;-7356.13;;;-145.42;100.00
49367;BME280;35245;52.026;8.540;2023-01-30T07:35:08;-5856.13;;;-145.42;100.00
49367;BME280;35245;52.026;8.540;2023-01-30T07:37:35;-4355.56;;;-145.42;100.00
49367;BME280;35245;52.026;8.540;2023-01-30T07:40:03;-4605.69;;;-145.42;100.00
49367;BME280;35245;52.026;8.540;2023-01-30T07:42:30;-4105.41;;;-145.42;100.00
49367;BME280;35245;52.026;8.540;2023-01-30T07:44:57;-3354.84;;;-145.42;100.00
49367;BME280;35245;52.026;8.540;2023-01-30T07:47:25;-3354.84;;;-145.42;100.00
49367;BME280;35245;52.026;8.540;2023-01-30T07:49:52;-100.75;;;-145.42;100.00
49367;BME280;35245;52.026;8.540;2023-01-30T07:52:20;-1352.66;;;-145.42;100.00
49367;BME280;35245;52.026;8.540;2023-01-30T07:54:47;149.69;;;-145.42;100.00
49367;BME280;35245;52.026;8.540;2023-01-30T07:57:15;2404.28;;;-145.42;100.00
49367;BME280;35245;52.026;8.540;2023-01-30T07:59:42;901.06;;;-145.42;100.00
49367;BME280;35245;52.026;8.540;2023-01-30T08:02:10;3908.09;;;-145.42;100.00
49367;BME280;35245;52.026;8.540;2023-01-30T08:04:37;4660.19;;;-145.42;100.00
49367;BME280;35245;52.026;8.540;2023-01-30T08:07:05;7921.06;;;-145.42;100.00
49367;BME280;35245;52.026;8.540;2023-01-30T08:09:33;10682.44;;;-145.42;100.00
49367;BME280;35245;52.026;8.540;2023-01-30T08:12:00;11938.22;;;-145.42;100.00
49367;BME280;35245;52.026;8.540;2023-01-30T08:14:28;12691.91;;;-145.42;100.00
49367;BME280;35245;52.026;8.540;2023-01-30T08:16:55;14199.72;;;-145.42;100.00
49367;BME280;35245;52.026;8.540;2023-01-30T08:19:23;17971.78;;;-145.42;100.00
49367;BME280;35245;52.026;8.540;2023-01-30T08:21:50;17217.09;;;-145.42;100.00
49367;BME280;35245;52.026;8.540;2023-01-30T08:24:17;19229.97;;;-145.42;100.00
49367;BME280;35245;52.026;8.540;2023-01-30T08:26:47;23258.84;;;-145.42;100.00
49367;BME280;35245;52.026;8.540;2023-01-30T08:29:14;16211.03;;;-145.42;100.00
49367;BME280;35245;52.026;8.540;2023-01-30T08:31:41;21747.53;;;-145.42;100.00
49367;BME280;35245;52.026;8.540;2023-01-30T08:34:08;19229.97;;;-145.42;100.00
49367;BME280;35245;52.026;8.540;2023-01-30T08:36:35;22503.09;;;-145.42;100.00
49367;BME280;35245;52.026;8.540;2023-01-30T08:39:03;24014.72;;;-145.42;100.00
49367;BME280;35245;52.026;8.540;2023-01-30T08:41:30;21999.38;;;-145.42;100.00
49367;BME280;35245;52.026;8.540;2023-01-30T08:43:59;24518.72;;;-145.42;100.00
49367;BME280;35245;52.026;8.540;2023-01-30T08:46:26;24770.75;;;-145.42;100.00
49367;BME280;35245;52.026;8.540;2023-01-30T08:48:53;25526.91;;;-145.42;100.00
49367;BME280;35245;52.026;8.540;2023-01-30T08:51:20;24770.75;;;-145.42;100.00
49367;BME280;35245;52.026;8.540;2023-01-30T08:53:48;24014.72;;;-145.42;100.00
49367;BME280;35245;52.026;8.540;2023-01-30T08:56:15;22503.09;;;-145.42;100.00
49367;BME280;35245;52.026;8.540;2023-01-30T08:58:42;29814.66;;;-145.42;100.00
49367;BME280;35245;52.026;8.540;2023-01-30T09:01:12;27291.88;;;-145.42;100.00
49367;BME280;35245;52.026;8.540;2023-01-30T09:03:40;29814.66;;;-145.42;100.00
49367;BME280;35245;52.026;8.540;2023-01-30T09:06:08;27039.69;;;-145.42;100.00
49367;BME280;35245;52.026;8.540;2023-01-30T09:08:35;28048.53;;;-145.42;100.00
49367;BME280;35245;52.026;8.540;2023-01-30T09:11:04;29814.66;;;-145.42;100.00
49367;BME280;35245;52.026;8.540;2023-01-30T09:13:33;31076.66;;;-145.42;100.00
49367;BME280;35245;52.026;8.540;2023-01-30T09:16:00;32339.06;;;-145.42;100.00
49367;BME280;35245;52.026;8.540;2023-01-30T09:18:30;32086.53;;;-145.42;100.00
49367;BME280;35245;52.026;8.540;2023-01-30T09:21:02;33349.25;;;-145.42;100.00
49367;BME280;35245;52.026;8.540;2023-01-30T09:23:29;45434.75;;;-145.42;100.00
49367;BME280;35245;52.026;8.540;2023-01-30T09:25:56;43578.50;;;-145.42;100.00
49367;BME280;35245;52.026;8.540;2023-01-30T09:28:25;46204.81;;;-145.42;100.00
49367;BME280;35245;52.026;8.540;2023-01-30T09:30:55;47335.44;;;-145.42;100.00
49367;BME280;35245;52.026;8.540;2023-01-30T09:33:23;48898.25;;;-145.42;100.00
49367;BME280;35245;52.026;8.540;2023-01-30T09:35:51;48367.34;;;-145.42;100.00
49367;BME280;35245;52.026;8.540;2023-01-30T09:38:19;47858.28;;;-145.42;100.00
49367;BME280;35245;52.026;8.540;2023-01-30T09:41:05;47654.28;;;-145.42;100.00
49367;BME280;35245;52.026;8.540;2023-01-30T09:43:50;44318.53;;;-145.42;100.00
49367;BME280;35245;52.026;8.540;2023-01-30T09:46:32;45951.41;;;-145.42;100.00
49367;BME280;35245;52.026;8.540;2023-01-30T09:49:08;46996.81;;;-145.42;100.00
49367;BME280;35245;52.026;8.540;2023-01-30T09:51:57;-13350.22;;;-145.42;100.00
49367;BME280;35245;52.026;8.540;2023-01-30T09:54:31;16462.53;;;-145.42;100.00
49367;BME280;35245;52.026;8.540;2023-01-30T09:57:10;-14100.28;;;-145.42;100.00
49367;BME280;35245;52.026;8.540;2023-01-30T09:59:58;-9605.00;;;-145.42;100.00
49367;BME280;35245;52.026;8.540;2023-01-30T10:02:40;11184.69;;;-145.42;100.00
49367;BME280;35245;52.026;8.540;2023-01-30T10:05:10;18726.63;;;-145.42;100.00
49367;BME280;35245;52.026;8.540;2023-01-30T10:08:08;23510.78;;;-145.42;100.00
49367;BME280;35245;52.026;8.540;2023-01-30T10:10:47;26031.09;;;-145.42;100.00
49367;BME280;35245;52.026;8.540;2023-01-30T10:13:35;23006.91;;;-145.42;100.00
49367;BME280;35245;52.026;8.540;2023-01-30T10:16:14;17468.63;;;-145.42;100.00
49367;BME280;35245;52.026;8.540;2023-01-30T10:19:07;-14100.28;;;-145.42;100.00
49367;BME280;35245;52.026;8.540;2023-01-30T10:21:45;2404.28;;;-145.42;100.00
49367;BME280;35245;52.026;8.540;2023-01-30T10:24:38;-10604.09;;;-145.42;100.00
49367;BME280;35245;52.026;8.540;2023-01-30T10:27:12;2696.00;;;-145.42;100.00
49367;BME280;35245;52.026;8.540;2023-01-30T10:29:45;-8642.75;;;-145.42;100.00
49367;BME280;35245;52.026;8.540;2023-01-30T10:32:17;31417.84;;;-145.42;100.00
49367;BME280;35245;52.026;8.540;2023-01-30T10:34:46;-14100.28;;;-145.42;100.00
49367;BME280;35245;52.026;8.540;2023-01-30T10:37:21;-8605.66;;;-145.42;100.00
49367;BME280;35245;52.026;8.540;2023-01-30T10:40:01;-4105.41;;;-145.42;100.00
49367;BME280;35245;52.026;8.540;2023-01-30T10:42:37;-4105.41;;;-145.42;100.00
49367;BME280;35245;52.026;8.540;2023-01-30T10:45:12;-5105.91;;;-145.42;100.00
49367;BME280;35245;52.026;8.540;2023-01-30T10:47:55;-2604.16;;;-145.42;100.00
49367;BME280;35245;52.026;8.540;2023-01-30T10:50:33;-100.75;;;-145.42;100.00
49367;BME280;35245;52.026;8.540;2023-01-30T10:53:10;-351.16;;;-145.42;100.00
49367;BME280;35245;52.026;8.540;2023-01-30T10:55:47;1903.16;;;-145.42;100.00
49367;BME280;35245;52.026;8.540;2023-01-30T10:58:22;4409.47;;;-145.42;100.00
49367;BME280;35245;52.026;8.540;2023-01-30T11:00:58;1652.59;;;-145.42;100.00
49367;BME280;35245;52.026;8.540;2023-01-30T11:03:35;3156.09;;;-145.42;100.00
49367;BME280;35245;52.026;8.540;2023-01-30T11:06:07;4660.19;;;-145.42;100.00
49367;BME280;35245;52.026;8.540;2023-01-30T11:08:37;9176.00;;;-145.42;100.00
49367;BME280;35245;52.026;8.540;2023-01-30T11:14:05;10933.56;;;-145.42;100.00
49367;BME280;35245;52.026;8.540;2023-01-30T11:16:41;11938.22;;;-145.42;100.00
49367;BME280;35245;52.026;8.540;2023-01-30T11:19:10;13194.44;;;-145.42;100.00
49367;BME280;35245;52.026;8.540;2023-01-30T11:21:38;22251.22;;;-145.42;100.00
49367;BME280;35245;52.026;8.540;2023-01-30T11:24:14;24266.72;;;-145.42;100.00
49367;BME280;35245;52.026;8.540;2023-01-30T11:26:43;24014.72;;;-145.42;100.00
49367;BME280;35245;52.026;8.540;2023-01-30T11:29:27;18726.63;;;-145.42;100.00
49367;BME280;35245;52.026;8.540;2023-01-30T11:31:57;18475.00;;;-145.42;100.00
49367;BME280;35245;52.026;8.540;2023-01-30T11:34:27;22503.09;;;-145.42;100.00
49367;BME280;35245;52.026;8.540;2023-01-30T11:37:12;28805.34;;;-145.42;100.00
49367;BME280;35245;52.026;8.540;2023-01-30T11:39:49;31834.03;;;-145.42;100.00
49367;BME280;35245;52.026;8.540;2023-01-30T11:42:19;29814.66;;;-145.42;100.00
49367;BME280;35245;52.026;8.540;2023-01-30T11:44:58;30067.03;;;-145.42;100.00
49367;BME280;35245;52.026;8.540;2023-01-30T11:47:27;37855.00;;;-145.42;100.00
49367;BME280;35245;52.026;8.540;2023-01-30T11:49:56;36377.53;;;-145.42;100.00
49367;BME280;35245;52.026;8.540;2023-01-30T11:52:30;42763.47;;;-145.42;100.00
49367;BME280;35245;52.026;8.540;2023-01-30T11:55:02;39127.47;;;-145.42;100.00
49367;BME280;35245;52.026;8.540;2023-01-30T11:57:39;45161.59;;;-145.42;100.00
49367;BME280;35245;52.026;8.540;2023-01-30T12:00:17;43279.75;;;-145.42;100.00
49367;BME280;35245;52.026;8.540;2023-01-30T12:02:45;47874.13;;;-145.42;100.00
49367;BME280;35245;52.026;8.540;2023-01-30T12:05:24;46622.56;;;-145.42;100.00
49367;BME280;35245;52.026;8.540;2023-01-30T12:08:13;47701.81;;;-145.42;100.00
49367;BME280;35245;52.026;8.540;2023-01-30T12:10:48;48030.59;;;-145.42;100.00
49367;BME280;35245;52.026;8.540;2023-01-30T12:13:23;49211.28;;;-145.42;100.00
49367;BME280;35245;52.026;8.540;2023-01-30T12:16:12;49944.44;;;-145.42;100.00
49367;BME280;35245;52.026;8.540;2023-01-30T12:18:50;50499.34;;;-145.42;100.00
49367;BME280;35245;52.026;8.540;2023-01-30T12:21:33;50556.81;;;-145.42;100.00
49367;BME280;35245;52.026;8.540;2023-01-30T12:24:14;50558.78;;;-145.42;100.00
49367;BME280;35245;52.026;8.540;2023-01-30T12:26:46;50647.97;;;-145.42;100.00
49367;BME280;35245;52.026;8.540;2023-01-30T12:29:23;50879.88;;;-145.42;100.00
49367;BME280;35245;52.026;8.540;2023-01-30T12:32:05;50868.00;;;-145.42;100.00
49367;BME280;35245;52.026;8.540;2023-01-30T12:34:33;50217.91;;;-145.42;100.00
49367;BME280;35245;52.026;8.540;2023-01-30T12:37:13;49171.66;;;-145.42;100.00
49367;BME280;35245;52.026;8.540;2023-01-30T12:39:57;8172.03;;;-145.42;100.00
49367;BME280;35245;52.026;8.540;2023-01-30T12:42:57;-11852.56;;;-145.42;100.00
49367;BME280;35245;52.026;8.540;2023-01-30T12:45:29;19481.63;;;-145.42;100.00
49367;BME280;35245;52.026;8.540;2023-01-30T12:51:17;-1602.97;;;-145.42;100.00
49367;BME280;35245;52.026;8.540;2023-01-30T12:53:59;-4105.41;;;-145.42;100.00
49367;BME280;35245;52.026;8.540;2023-01-30T12:56:53;47212.66;;;-145.42;100.00
49367;BME280;35245;52.026;8.540;2023-01-30T12:59:28;46832.44;;;-145.42;100.00